createdAt,value
2016-05-15T00:00:45.968Z,15.92
2016-05-15T00:01:45.940Z,15.92
2016-05-15T00:02:45.785Z,15.76
2016-05-15T00:03:45.758Z,15.76
2016-05-15T00:04:45.886Z,15.88
2016-05-15T00:05:45.872Z,15.9
2016-05-15T00:06:45.844Z,15.77
2016-05-15T00:07:45.831Z,15.86
2016-05-15T00:08:45.817Z,15.91
2016-05-15T00:09:45.804Z,15.9
2016-05-15T00:10:45.777Z,15.94
2016-05-15T00:11:45.763Z,15.91
2016-05-15T00:12:45.735Z,15.98
2016-05-15T00:13:45.722Z,15.91
2016-05-15T00:14:45.709Z,15.9
2016-05-15T00:15:45.681Z,15.8
2016-05-15T00:16:45.667Z,15.76
2016-05-15T00:17:45.639Z,15.92
2016-05-15T00:18:45.642Z,16.01
2016-05-15T00:19:45.456Z,16.1
2016-05-15T00:20:45.600Z,15.98
2016-05-15T00:21:45.572Z,15.97
2016-05-15T00:22:45.402Z,16.02
2016-05-15T00:23:45.546Z,16.08
2016-05-15T00:24:45.533Z,16.15
2016-05-15T00:25:45.364Z,16.09
2016-05-15T00:26:45.491Z,16.09
2016-05-15T00:27:45.463Z,15.94
2016-05-15T00:28:45.449Z,15.75
2016-05-15T00:29:45.436Z,15.91
2016-05-15T00:30:45.408Z,15.91
2016-05-15T00:31:45.396Z,15.88
2016-05-15T00:32:45.383Z,15.73
2016-05-15T00:33:45.385Z,15.8
2016-05-15T00:34:45.325Z,15.9
2016-05-15T00:35:45.156Z,15.83
2016-05-15T00:36:45.299Z,15.72
2016-05-15T00:37:45.146Z,15.82
2016-05-15T00:38:45.273Z,15.62
2016-05-15T00:39:45.260Z,15.7
2016-05-15T00:40:45.232Z,15.67
2016-05-15T00:41:45.062Z,15.68
2016-05-15T00:42:45.190Z,15.77
2016-05-15T00:43:45.193Z,15.83
2016-05-15T00:44:45.149Z,15.75
2016-05-15T00:45:45.136Z,15.8
2016-05-15T00:46:45.123Z,15.8
2016-05-15T00:47:45.110Z,15.79
2016-05-15T00:48:45.097Z,15.76
2016-05-15T00:49:45.054Z,15.72
2016-05-15T00:50:45.040Z,15.61
2016-05-15T00:51:45.028Z,15.59
2016-05-15T00:52:45.014Z,15.68
2016-05-15T00:53:44.986Z,15.58
2016-05-15T00:54:44.988Z,15.58
2016-05-15T00:55:44.960Z,15.73
2016-05-15T00:56:44.931Z,15.68
2016-05-15T00:57:44.919Z,15.7
2016-05-15T00:58:44.905Z,15.68
2016-05-15T00:59:44.736Z,15.68
2016-05-15T01:00:44.724Z,15.7
2016-05-15T01:01:44.694Z,15.65
2016-05-15T01:02:44.822Z,15.79
2016-05-15T01:03:47.060Z,15.79
2016-05-15T01:04:44.828Z,15.86
2016-05-15T01:05:44.768Z,15.75
2016-05-15T01:06:44.615Z,15.68
2016-05-15T01:07:44.743Z,15.76
2016-05-15T01:08:44.573Z,15.75
2016-05-15T01:09:44.716Z,15.76
2016-05-15T01:10:44.688Z,15.8
2016-05-15T01:11:44.660Z,15.92
2016-05-15T01:12:44.334Z,15.9
2016-05-15T01:13:44.477Z,15.95
2016-05-15T01:14:44.464Z,16.04
2016-05-15T01:15:44.451Z,15.98
2016-05-15T01:16:44.563Z,15.98
2016-05-15T01:17:44.409Z,15.88
2016-05-15T01:18:44.834Z,15.94
2016-05-15T01:19:44.525Z,15.9
2016-05-15T01:20:44.198Z,15.97
2016-05-15T01:21:44.484Z,15.98
2016-05-15T01:22:44.486Z,16.02
2016-05-15T01:23:44.457Z,15.84
2016-05-15T01:24:44.428Z,15.91
2016-05-15T01:25:44.416Z,15.95
2016-05-15T01:26:44.387Z,15.94
2016-05-15T01:27:44.374Z,16
2016-05-15T01:28:44.345Z,16.05
2016-05-15T01:29:44.177Z,15.94
2016-05-15T01:30:44.007Z,15.91
2016-05-15T01:31:44.307Z,15.91
2016-05-15T01:32:44.278Z,16.01
2016-05-15T01:33:43.984Z,15.98
2016-05-15T01:34:44.236Z,16
2016-05-15T01:35:44.224Z,16.1
2016-05-15T01:36:44.227Z,15.91
2016-05-15T01:37:44.041Z,15.94
2016-05-15T01:38:44.185Z,16.1
2016-05-15T01:39:44.032Z,16
2016-05-15T01:40:44.127Z,15.91
2016-05-15T01:41:43.959Z,15.82
2016-05-15T01:42:44.101Z,15.88
2016-05-15T01:43:44.073Z,15.8
2016-05-15T01:44:43.920Z,15.86
2016-05-15T01:45:44.047Z,15.65
2016-05-15T01:46:44.034Z,15.79
2016-05-15T01:47:43.709Z,15.77
2016-05-15T01:48:43.868Z,15.82
2016-05-15T01:49:43.965Z,15.79
2016-05-15T01:50:43.951Z,15.86
2016-05-15T01:51:43.939Z,15.65
2016-05-15T01:52:43.925Z,15.8
2016-05-15T01:53:43.742Z,15.91
2016-05-15T01:54:43.869Z,15.79
2016-05-15T01:55:43.856Z,15.83
2016-05-15T01:56:43.842Z,15.8
2016-05-15T01:57:43.673Z,15.91
2016-05-15T01:58:43.817Z,15.91
2016-05-15T01:59:43.819Z,15.97
2016-05-15T02:00:43.775Z,16.04
2016-05-15T02:01:43.450Z,16.02
2016-05-15T02:02:43.734Z,15.92
2016-05-15T02:03:43.830Z,15.9
2016-05-15T02:04:43.677Z,15.94
2016-05-15T02:05:43.679Z,16
2016-05-15T02:06:43.510Z,15.97
2016-05-15T02:07:43.654Z,16.04
2016-05-15T02:08:43.624Z,16.05
2016-05-15T02:09:43.597Z,15.95
2016-05-15T02:10:43.599Z,15.76
2016-05-15T02:11:43.571Z,15.8
2016-05-15T02:12:43.573Z,15.88
2016-05-15T02:13:43.530Z,16.01
2016-05-15T02:14:43.516Z,15.94
2016-05-15T02:15:43.503Z,15.86
2016-05-15T02:16:43.491Z,15.83
2016-05-15T02:17:43.446Z,15.94
2016-05-15T02:18:43.323Z,15.98
2016-05-15T02:19:43.421Z,15.91
2016-05-15T02:20:43.407Z,15.95
2016-05-15T02:21:43.426Z,16.05
2016-05-15T02:22:43.365Z,16.01
2016-05-15T02:23:43.337Z,16.04
2016-05-15T02:24:43.325Z,16.1
2016-05-15T02:25:43.311Z,16.02
2016-05-15T02:26:43.283Z,16
2016-05-15T02:27:43.270Z,15.97
2016-05-15T02:28:43.257Z,16.13
2016-05-15T02:29:43.072Z,16.1
2016-05-15T02:30:43.059Z,16.02
2016-05-15T02:31:43.202Z,16.05
2016-05-15T02:32:43.190Z,15.91
2016-05-15T02:33:43.161Z,15.92
2016-05-15T02:34:43.132Z,15.9
2016-05-15T02:35:43.135Z,15.92
2016-05-15T02:36:43.107Z,16.04
2016-05-15T02:37:43.094Z,16.05
2016-05-15T02:38:42.908Z,15.94
2016-05-15T02:39:42.896Z,15.91
2016-05-15T02:40:43.039Z,16.04
2016-05-15T02:41:43.010Z,16
2016-05-15T02:42:42.841Z,16.16
2016-05-15T02:43:42.985Z,16.05
2016-05-15T02:44:42.816Z,16.09
2016-05-15T02:45:42.943Z,16.01
2016-05-15T02:46:42.930Z,16.04
2016-05-15T02:47:42.917Z,15.92
2016-05-15T02:48:42.748Z,15.91
2016-05-15T02:49:42.892Z,15.8
2016-05-15T02:50:42.862Z,15.98
2016-05-15T02:51:42.679Z,15.86
2016-05-15T02:52:42.821Z,15.95
2016-05-15T02:53:42.792Z,15.94
2016-05-15T02:54:42.780Z,15.92
2016-05-15T02:55:42.783Z,15.9
2016-05-15T02:56:42.739Z,15.8
2016-05-15T02:57:42.725Z,15.82
2016-05-15T02:58:42.698Z,15.8
2016-05-15T02:59:42.528Z,15.79
2016-05-15T03:00:42.514Z,15.8
2016-05-15T03:01:42.658Z,15.83
2016-05-15T03:02:42.661Z,15.79
2016-05-15T03:03:43.522Z,15.79
2016-05-15T03:04:42.463Z,15.83
2016-05-15T03:05:42.591Z,15.84
2016-05-15T03:06:42.422Z,15.8
2016-05-15T03:07:42.549Z,15.83
2016-05-15T03:08:42.521Z,15.8
2016-05-15T03:09:42.508Z,15.82
2016-05-15T03:10:42.494Z,15.9
2016-05-15T03:11:42.310Z,15.76
2016-05-15T03:12:42.454Z,15.82
2016-05-15T03:13:42.441Z,15.84
2016-05-15T03:14:42.412Z,15.9
2016-05-15T03:15:42.399Z,15.79
2016-05-15T03:16:42.386Z,15.79
2016-05-15T03:17:42.217Z,15.76
2016-05-15T03:18:42.563Z,15.8
2016-05-15T03:19:42.175Z,15.95
2016-05-15T03:20:42.319Z,15.92
2016-05-15T03:21:42.290Z,15.94
2016-05-15T03:22:42.292Z,15.91
2016-05-15T03:23:42.249Z,15.88
2016-05-15T03:24:42.236Z,15.88
2016-05-15T03:25:42.206Z,15.98
2016-05-15T03:26:42.195Z,16.04
2016-05-15T03:27:42.181Z,16.02
2016-05-15T03:28:42.168Z,15.84
2016-05-15T03:29:41.983Z,15.9
2016-05-15T03:30:42.127Z,15.92
2016-05-15T03:31:42.098Z,15.88
2016-05-15T03:32:42.100Z,15.82
2016-05-15T03:33:42.650Z,15.92
2016-05-15T03:34:42.216Z,15.9
2016-05-15T03:35:42.047Z,15.84
2016-05-15T03:36:42.018Z,15.91
2016-05-15T03:37:41.989Z,15.94
2016-05-15T03:38:41.977Z,15.98
2016-05-15T03:39:41.963Z,15.9
2016-05-15T03:40:41.935Z,15.8
2016-05-15T03:41:41.922Z,15.77
2016-05-15T03:42:41.753Z,15.84
2016-05-15T03:43:41.896Z,15.84
2016-05-15T03:44:41.867Z,15.82
2016-05-15T03:45:41.855Z,15.73
2016-05-15T03:46:41.841Z,15.67
2016-05-15T03:47:41.828Z,15.79
2016-05-15T03:48:41.801Z,15.82
2016-05-15T03:49:42.007Z,15.82
2016-05-15T03:50:41.759Z,15.8
2016-05-15T03:51:41.433Z,15.95
2016-05-15T03:52:41.718Z,15.94
2016-05-15T03:53:41.704Z,16.09
2016-05-15T03:54:41.706Z,16.04
2016-05-15T03:55:41.507Z,16.05
2016-05-15T03:56:41.650Z,15.98
2016-05-15T03:57:41.621Z,15.98
2016-05-15T03:58:41.608Z,16.05
2016-05-15T03:59:41.595Z,16.08
2016-05-15T04:00:41.411Z,16.1
2016-05-15T04:01:41.569Z,16.1
2016-05-15T04:02:41.525Z,16.21
2016-05-15T04:03:42.106Z,16.29
2016-05-15T04:04:41.828Z,16.2
2016-05-15T04:05:41.486Z,16.13
2016-05-15T04:06:41.161Z,16.17
2016-05-15T04:07:41.289Z,16.08
2016-05-15T04:08:41.447Z,16.13
2016-05-15T04:09:41.419Z,16.15
2016-05-15T04:10:41.391Z,16.15
2016-05-15T04:11:41.378Z,16.29
2016-05-15T04:12:41.349Z,16.17
2016-05-15T04:13:41.195Z,16.29
2016-05-15T04:14:41.324Z,16.12
2016-05-15T04:15:41.138Z,16.13
2016-05-15T04:16:41.125Z,16.12
2016-05-15T04:17:41.254Z,16.13
2016-05-15T04:18:41.490Z,16.02
2016-05-15T04:19:41.071Z,16.05
2016-05-15T04:20:40.902Z,16
2016-05-15T04:21:41.202Z,16.02
2016-05-15T04:22:41.173Z,15.95
2016-05-15T04:23:41.159Z,16.09
2016-05-15T04:24:40.991Z,15.98
2016-05-15T04:25:41.118Z,16.09
2016-05-15T04:26:41.090Z,16.05
2016-05-15T04:27:40.920Z,16.12
2016-05-15T04:28:40.908Z,16.08
2016-05-15T04:29:40.895Z,16.08
2016-05-15T04:30:41.038Z,16.09
2016-05-15T04:31:41.025Z,16.13
2016-05-15T04:32:40.981Z,16.13
2016-05-15T04:33:40.984Z,16.08
2016-05-15T04:34:40.799Z,16.05
2016-05-15T04:35:40.942Z,16.13
2016-05-15T04:36:40.914Z,16.1
2016-05-15T04:37:40.900Z,16.13
2016-05-15T04:38:40.872Z,16.2
2016-05-15T04:39:40.703Z,16.2
2016-05-15T04:40:40.846Z,16.1
2016-05-15T04:41:40.677Z,16.28
2016-05-15T04:42:40.821Z,16.12
2016-05-15T04:43:40.635Z,16.17
2016-05-15T04:44:40.622Z,16.16
2016-05-15T04:45:40.593Z,16.04
2016-05-15T04:46:40.597Z,16.08
2016-05-15T04:47:40.568Z,16.04
2016-05-15T04:48:40.696Z,16.1
2016-05-15T04:49:41.136Z,16.31
2016-05-15T04:50:40.513Z,16.17
2016-05-15T04:51:40.641Z,16.08
2016-05-15T04:52:40.629Z,16.15
2016-05-15T04:53:40.600Z,16.24
2016-05-15T04:54:40.603Z,16.21
2016-05-15T04:55:40.590Z,16.24
2016-05-15T04:56:40.546Z,16.16
2016-05-15T04:57:40.548Z,16.1
2016-05-15T04:58:40.520Z,16.23
2016-05-15T04:59:40.334Z,16.15
2016-05-15T05:00:40.494Z,16.16
2016-05-15T05:01:40.465Z,16.08
2016-05-15T05:02:40.436Z,16.29
2016-05-15T05:03:40.440Z,16.29
2016-05-15T05:04:40.270Z,16.15
2016-05-15T05:05:40.413Z,16.12
2016-05-15T05:06:40.370Z,16.21
2016-05-15T05:07:40.356Z,16.26
2016-05-15T05:08:40.327Z,16.15
2016-05-15T05:09:40.315Z,16.16
2016-05-15T05:10:40.146Z,16.16
2016-05-15T05:11:40.289Z,16.15
2016-05-15T05:12:40.260Z,16.15
2016-05-15T05:13:40.247Z,16.09
2016-05-15T05:14:40.219Z,16.08
2016-05-15T05:15:40.205Z,16.15
2016-05-15T05:16:40.037Z,16.1
2016-05-15T05:17:39.868Z,16.15
2016-05-15T05:18:40.152Z,16.13
2016-05-15T05:19:40.341Z,16.13
2016-05-15T05:20:40.110Z,16.1
2016-05-15T05:21:39.957Z,16.05
2016-05-15T05:22:39.928Z,16.05
2016-05-15T05:23:40.071Z,16.09
2016-05-15T05:24:40.042Z,16.13
2016-05-15T05:25:39.874Z,16.12
2016-05-15T05:26:40.001Z,16.13
2016-05-15T05:27:39.987Z,16.1
2016-05-15T05:28:39.976Z,16.15
2016-05-15T05:29:39.806Z,16.2
2016-05-15T05:30:39.933Z,16.15
2016-05-15T05:31:39.920Z,16.02
2016-05-15T05:32:39.737Z,16.01
2016-05-15T05:33:39.895Z,16.15
2016-05-15T05:34:39.725Z,16.04
2016-05-15T05:35:39.854Z,16
2016-05-15T05:36:39.841Z,16.16
2016-05-15T05:37:39.811Z,16.05
2016-05-15T05:38:39.799Z,16.2
2016-05-15T05:39:39.770Z,16.08
2016-05-15T05:40:39.773Z,16.16
2016-05-15T05:41:39.572Z,16.05
2016-05-15T05:42:39.732Z,16.05
2016-05-15T05:43:39.547Z,16.1
2016-05-15T05:44:39.690Z,16.04
2016-05-15T05:45:39.661Z,16.12
2016-05-15T05:46:39.633Z,16.13
2016-05-15T05:47:39.480Z,16.24
2016-05-15T05:48:39.623Z,16.17
2016-05-15T05:49:39.594Z,16.16
2016-05-15T05:50:39.269Z,16.12
2016-05-15T05:51:39.552Z,16.13
2016-05-15T05:52:39.540Z,16.17
2016-05-15T05:53:39.512Z,16.24
2016-05-15T05:54:39.498Z,16.33
2016-05-15T05:55:39.485Z,16.41
2016-05-15T05:56:39.457Z,16.28
2016-05-15T05:57:39.443Z,16.36
2016-05-15T05:58:39.415Z,16.21
2016-05-15T05:59:39.402Z,16.16
2016-05-15T06:00:39.234Z,16
2016-05-15T06:01:39.220Z,16.04
2016-05-15T06:02:39.207Z,16.08
2016-05-15T06:03:39.335Z,16.13
2016-05-15T06:04:39.337Z,16.31
2016-05-15T06:05:39.309Z,16.26
2016-05-15T06:06:39.281Z,16.17
2016-05-15T06:07:39.267Z,16.08
2016-05-15T06:08:39.098Z,16.15
2016-05-15T06:09:39.241Z,16.26
2016-05-15T06:10:39.214Z,16.2
2016-05-15T06:11:39.185Z,16.13
2016-05-15T06:12:39.031Z,16.09
2016-05-15T06:13:39.158Z,16.12
2016-05-15T06:14:39.130Z,16.08
2016-05-15T06:15:39.117Z,16.08
2016-05-15T06:16:39.104Z,16.13
2016-05-15T06:17:39.077Z,16.31
2016-05-15T06:18:39.063Z,16.2
2016-05-15T06:19:39.049Z,16.32
2016-05-15T06:20:38.881Z,16.38
2016-05-15T06:21:39.008Z,16.29
2016-05-15T06:22:38.839Z,16.33
2016-05-15T06:23:38.982Z,16.15
2016-05-15T06:24:38.954Z,16.15
2016-05-15T06:25:38.941Z,16.16
2016-05-15T06:26:38.928Z,16.32
2016-05-15T06:27:38.915Z,16.32
2016-05-15T06:28:38.871Z,16.32
2016-05-15T06:29:38.858Z,16.17
2016-05-15T06:30:38.861Z,16.13
2016-05-15T06:31:38.832Z,16.12
2016-05-15T06:32:38.804Z,16.13
2016-05-15T06:33:38.775Z,16.12
2016-05-15T06:34:39.825Z,16.28
2016-05-15T06:35:38.609Z,16.26
2016-05-15T06:36:38.736Z,16.29
2016-05-15T06:37:38.708Z,16.46
2016-05-15T06:38:38.538Z,16.33
2016-05-15T06:39:38.682Z,16.39
2016-05-15T06:40:38.669Z,16.41
2016-05-15T06:41:38.483Z,16.39
2016-05-15T06:42:38.487Z,16.33
2016-05-15T06:43:38.630Z,16.29
2016-05-15T06:44:38.602Z,16.28
2016-05-15T06:45:38.572Z,16.46
2016-05-15T06:46:38.561Z,16.35
2016-05-15T06:47:38.532Z,16.51
2016-05-15T06:48:38.518Z,16.58
2016-05-15T06:49:38.803Z,16.65
2016-05-15T06:50:38.321Z,16.46
2016-05-15T06:51:38.495Z,16.39
2016-05-15T06:52:38.451Z,16.28
2016-05-15T06:53:38.266Z,16.32
2016-05-15T06:54:38.410Z,16.23
2016-05-15T06:55:38.396Z,16.33
2016-05-15T06:56:38.368Z,16.54
2016-05-15T06:57:38.199Z,16.58
2016-05-15T06:58:38.326Z,16.54
2016-05-15T06:59:38.157Z,16.46
2016-05-15T07:00:38.317Z,16.5
2016-05-15T07:01:38.288Z,16.5
2016-05-15T07:02:38.275Z,16.5
2016-05-15T07:03:38.262Z,16.66
2016-05-15T07:04:38.078Z,16.75
2016-05-15T07:05:38.205Z,16.69
2016-05-15T07:06:38.191Z,16.76
2016-05-15T07:07:38.179Z,16.79
2016-05-15T07:08:38.009Z,16.86
2016-05-15T07:09:38.153Z,16.93
2016-05-15T07:10:38.124Z,16.86
2016-05-15T07:11:38.112Z,16.76
2016-05-15T07:12:37.786Z,16.79
2016-05-15T07:13:38.054Z,16.72
2016-05-15T07:14:37.901Z,16.78
2016-05-15T07:15:38.028Z,16.76
2016-05-15T07:16:38.016Z,16.72
2016-05-15T07:17:38.003Z,16.93
2016-05-15T07:18:37.833Z,16.87
2016-05-15T07:19:37.868Z,16.89
2016-05-15T07:20:37.963Z,16.87
2016-05-15T07:21:37.935Z,16.91
2016-05-15T07:22:37.922Z,16.91
2016-05-15T07:23:37.894Z,16.78
2016-05-15T07:24:37.568Z,16.76
2016-05-15T07:25:37.868Z,16.83
2016-05-15T07:26:37.855Z,16.84
2016-05-15T07:27:37.810Z,16.87
2016-05-15T07:28:37.798Z,16.87
2016-05-15T07:29:37.801Z,16.87
2016-05-15T07:30:37.773Z,16.74
2016-05-15T07:31:37.743Z,16.84
2016-05-15T07:32:37.731Z,16.9
2016-05-15T07:33:37.718Z,17.02
2016-05-15T07:34:37.564Z,17.02
2016-05-15T07:35:37.660Z,16.91
2016-05-15T07:36:37.492Z,16.94
2016-05-15T07:37:37.478Z,16.91
2016-05-15T07:38:37.642Z,16.94
2016-05-15T07:39:37.672Z,17.06
2016-05-15T07:40:37.703Z,17.12
2016-05-15T07:41:37.577Z,17.15
2016-05-15T07:42:37.732Z,17.22
2016-05-15T07:43:37.594Z,17.11
2016-05-15T07:44:37.612Z,17.23
2016-05-15T07:45:37.756Z,17.22
2016-05-15T07:46:37.758Z,17.22
2016-05-15T07:47:37.745Z,17.24
2016-05-15T07:48:37.431Z,17.3
2016-05-15T07:49:37.752Z,17.23
2016-05-15T07:50:37.556Z,17.27
2016-05-15T07:51:38.049Z,17.22
2016-05-15T07:52:37.698Z,17.23
2016-05-15T07:53:44.673Z,17.19
2016-05-15T07:54:37.677Z,17.33
2016-05-15T07:55:37.651Z,17.34
2016-05-15T07:56:37.639Z,17.27
2016-05-15T07:57:37.613Z,17.2
2016-05-15T07:58:37.445Z,17.29
2016-05-15T07:59:37.418Z,17.46
2016-05-15T08:00:37.562Z,17.54
2016-05-15T08:01:37.393Z,17.46
2016-05-15T08:02:37.381Z,17.54
2016-05-15T08:03:37.368Z,17.33
2016-05-15T08:04:37.356Z,17.23
2016-05-15T08:05:37.484Z,17.26
2016-05-15T08:06:37.488Z,17.26
2016-05-15T08:07:37.475Z,17.27
2016-05-15T08:08:37.430Z,17.33
2016-05-15T08:09:37.419Z,17.24
2016-05-15T08:10:37.249Z,17.41
2016-05-15T08:11:37.376Z,17.54
2016-05-15T08:12:37.363Z,17.51
2016-05-15T08:13:37.335Z,17.64
2016-05-15T08:14:37.338Z,17.67
2016-05-15T08:15:37.309Z,17.71
2016-05-15T08:16:37.296Z,17.67
2016-05-15T08:17:37.283Z,17.7
2016-05-15T08:18:37.270Z,17.79
2016-05-15T08:19:37.101Z,17.65
2016-05-15T08:20:37.229Z,17.72
2016-05-15T08:21:37.076Z,17.67
2016-05-15T08:22:37.203Z,17.76
2016-05-15T08:23:37.206Z,17.76
2016-05-15T08:24:37.006Z,17.76
2016-05-15T08:25:37.133Z,17.8
2016-05-15T08:26:37.120Z,17.85
2016-05-15T08:27:37.091Z,17.86
2016-05-15T08:28:37.095Z,17.83
2016-05-15T08:29:37.065Z,17.82
2016-05-15T08:30:37.036Z,18
2016-05-15T08:31:37.070Z,18.04
2016-05-15T08:32:37.027Z,18.05
2016-05-15T08:33:36.998Z,18.04
2016-05-15T08:34:37.219Z,18.15
2016-05-15T08:35:36.957Z,18.28
2016-05-15T08:36:36.631Z,18.22
2016-05-15T08:37:36.946Z,18.15
2016-05-15T08:38:36.762Z,18.15
2016-05-15T08:39:36.749Z,18.19
2016-05-15T08:40:36.891Z,18.37
2016-05-15T08:41:36.879Z,18.45
2016-05-15T08:42:36.694Z,18.45
2016-05-15T08:43:36.822Z,18.49
2016-05-15T08:44:36.824Z,18.4
2016-05-15T08:45:36.796Z,18.33
2016-05-15T08:46:36.783Z,18.25
2016-05-15T08:47:36.770Z,18.45
2016-05-15T08:48:36.741Z,18.31
2016-05-15T08:49:37.182Z,18.43
2016-05-15T08:50:36.732Z,18.53
2016-05-15T08:51:36.531Z,18.44
2016-05-15T08:52:36.518Z,18.43
2016-05-15T08:53:36.661Z,18.45
2016-05-15T08:54:36.648Z,18.68
2016-05-15T08:55:36.479Z,18.7
2016-05-15T08:56:36.623Z,18.59
2016-05-15T08:57:36.609Z,18.66
2016-05-15T08:58:36.253Z,18.83
2016-05-15T08:59:36.584Z,18.84
2016-05-15T09:00:36.539Z,18.8
2016-05-15T09:01:36.542Z,18.77
2016-05-15T09:02:36.514Z,18.56
2016-05-15T09:03:36.516Z,18.44
2016-05-15T09:04:36.504Z,18.59
2016-05-15T09:05:36.459Z,18.62
2016-05-15T09:06:36.446Z,18.74
2016-05-15T09:07:36.433Z,18.6
2016-05-15T09:08:36.419Z,18.77
2016-05-15T09:09:36.251Z,18.59
2016-05-15T09:10:36.223Z,18.62
2016-05-15T09:11:36.366Z,18.81
2016-05-15T09:12:36.352Z,18.81
2016-05-15T09:13:36.200Z,18.84
2016-05-15T09:14:36.327Z,18.89
2016-05-15T09:15:36.282Z,18.89
2016-05-15T09:16:36.285Z,18.98
2016-05-15T09:17:36.274Z,18.99
2016-05-15T09:18:36.104Z,19.04
2016-05-15T09:19:36.387Z,19.27
2016-05-15T09:20:36.062Z,19.26
2016-05-15T09:21:36.204Z,18.99
2016-05-15T09:22:36.037Z,18.99
2016-05-15T09:23:36.007Z,19
2016-05-15T09:24:36.151Z,19.11
2016-05-15T09:25:36.138Z,19.3
2016-05-15T09:26:35.812Z,19.26
2016-05-15T09:27:36.096Z,19
2016-05-15T09:28:36.084Z,19.19
2016-05-15T09:29:36.070Z,19.29
2016-05-15T09:30:36.058Z,19.33
2016-05-15T09:31:35.873Z,19.52
2016-05-15T09:32:36.016Z,19.49
2016-05-15T09:33:36.003Z,19.51
2016-05-15T09:34:36.084Z,19.37
2016-05-15T09:35:35.821Z,19.31
2016-05-15T09:36:35.949Z,19.45
2016-05-15T09:37:35.811Z,19.45
2016-05-15T09:38:35.923Z,19.4
2016-05-15T09:39:35.910Z,19.4
2016-05-15T09:40:35.897Z,19.45
2016-05-15T09:41:35.884Z,19.63
2016-05-15T09:42:35.871Z,19.76
2016-05-15T09:43:35.858Z,19.56
2016-05-15T09:44:35.829Z,19.48
2016-05-15T09:45:35.833Z,19.36
2016-05-15T09:46:35.804Z,19.4
2016-05-15T09:47:35.772Z,19.44
2016-05-15T09:48:35.775Z,19.59
2016-05-15T09:49:35.840Z,19.51
2016-05-15T09:50:35.734Z,19.69
2016-05-15T09:51:35.721Z,19.55
2016-05-15T09:52:35.568Z,19.48
2016-05-15T09:53:35.695Z,19.76
2016-05-15T09:54:35.666Z,19.76
2016-05-15T09:55:35.653Z,19.84
2016-05-15T09:56:35.312Z,19.95
2016-05-15T09:57:35.628Z,20.18
2016-05-15T09:58:35.458Z,20.13
2016-05-15T09:59:35.430Z,20.1
2016-05-15T10:00:35.417Z,20.21
2016-05-15T10:01:35.545Z,20.4
2016-05-15T10:02:35.547Z,20.36
2016-05-15T10:03:35.519Z,20.36
2016-05-15T10:04:35.522Z,20.16
2016-05-15T10:05:35.336Z,20.11
2016-05-15T10:06:35.339Z,20.11
2016-05-15T10:07:35.467Z,20.14
2016-05-15T10:08:35.454Z,20.43
2016-05-15T10:09:35.441Z,20.48
2016-05-15T10:10:35.443Z,20.5
2016-05-15T10:11:35.415Z,20.22
2016-05-15T10:12:35.090Z,20.11
2016-05-15T10:13:35.374Z,20.16
2016-05-15T10:14:35.376Z,20.4
2016-05-15T10:15:35.192Z,20.37
2016-05-15T10:16:35.335Z,20.44
2016-05-15T10:17:35.322Z,20.6
2016-05-15T10:18:35.309Z,20.77
2016-05-15T10:19:35.641Z,21.09
2016-05-15T10:20:35.268Z,21.35
2016-05-15T10:21:35.114Z,21.55
2016-05-15T10:22:35.241Z,21.48
2016-05-15T10:23:35.228Z,21.46
2016-05-15T10:24:35.060Z,21.64
2016-05-15T10:25:35.203Z,21.55
2016-05-15T10:26:35.190Z,21.67
2016-05-15T10:27:35.176Z,21.75
2016-05-15T10:28:35.195Z,21.85
2016-05-15T10:29:35.151Z,21.98
2016-05-15T10:30:35.138Z,22.14
2016-05-15T10:31:35.422Z,21.62
2016-05-15T10:32:35.097Z,21.33
2016-05-15T10:33:34.928Z,21.32
2016-05-15T10:34:34.931Z,21.27
2016-05-15T10:35:34.901Z,21.18
2016-05-15T10:36:35.044Z,21.29
2016-05-15T10:37:35.032Z,21.33
2016-05-15T10:38:35.020Z,21.43
2016-05-15T10:39:34.991Z,21.33
2016-05-15T10:40:35.008Z,21.14
2016-05-15T10:41:34.981Z,21.17
2016-05-15T10:42:34.952Z,21.27
2016-05-15T10:43:34.955Z,21.35
2016-05-15T10:44:34.941Z,21.22
2016-05-15T10:45:34.928Z,21.3
2016-05-15T10:46:34.916Z,21.29
2016-05-15T10:47:34.903Z,21.39
2016-05-15T10:48:34.733Z,21.51
2016-05-15T10:49:34.877Z,21.45
2016-05-15T10:50:34.863Z,21.22
2016-05-15T10:51:34.742Z,21.4
2016-05-15T10:52:34.822Z,21.46
2016-05-15T10:53:34.824Z,21.76
2016-05-15T10:54:34.812Z,21.91
2016-05-15T10:55:34.783Z,22.07
2016-05-15T10:56:34.771Z,21.77
2016-05-15T10:57:34.757Z,21.52
2016-05-15T10:58:34.760Z,21.25
2016-05-15T10:59:34.747Z,21.4
2016-05-15T11:00:34.735Z,21.42
2016-05-15T11:01:34.393Z,21.66
2016-05-15T11:02:34.709Z,21.5
2016-05-15T11:03:34.680Z,21.54
2016-05-15T11:04:34.793Z,21.62
2016-05-15T11:05:34.700Z,21.77
2016-05-15T11:06:34.642Z,21.85
2016-05-15T11:07:34.644Z,21.77
2016-05-15T11:08:34.475Z,21.61
2016-05-15T11:09:34.461Z,21.67
2016-05-15T11:10:34.606Z,21.51
2016-05-15T11:11:34.420Z,21.46
2016-05-15T11:12:34.580Z,21.7
2016-05-15T11:13:34.550Z,21.67
2016-05-15T11:14:34.553Z,21.77
2016-05-15T11:15:34.524Z,22.15
2016-05-15T11:16:34.512Z,21.96
2016-05-15T11:17:34.358Z,22.33
2016-05-15T11:18:34.502Z,22.45
2016-05-15T11:19:34.504Z,22.36
2016-05-15T11:20:34.476Z,22.36
2016-05-15T11:21:34.479Z,22.36
2016-05-15T11:22:34.465Z,22.68
2016-05-15T11:23:34.452Z,22.69
2016-05-15T11:24:34.440Z,22.55
2016-05-15T11:25:34.426Z,22.8
2016-05-15T11:26:34.429Z,22.76
2016-05-15T11:27:34.401Z,22.65
2016-05-15T11:28:34.387Z,22.94
2016-05-15T11:29:34.375Z,23.02
2016-05-15T11:30:34.378Z,23.12
2016-05-15T11:31:34.365Z,23.05
2016-05-15T11:32:34.211Z,23.46
2016-05-15T11:33:34.386Z,23.51
2016-05-15T11:34:34.357Z,23.41
2016-05-15T11:35:34.188Z,23
2016-05-15T11:36:34.019Z,22.91
2016-05-15T11:37:34.303Z,23.06
2016-05-15T11:38:34.289Z,23.15
2016-05-15T11:39:34.308Z,22.98
2016-05-15T11:40:34.139Z,23.08
2016-05-15T11:41:34.283Z,23.37
2016-05-15T11:42:34.472Z,23.36
2016-05-15T11:43:34.116Z,23.12
2016-05-15T11:44:34.258Z,23.17
2016-05-15T11:45:34.247Z,22.96
2016-05-15T11:46:34.233Z,22.87
2016-05-15T11:47:34.064Z,22.69
2016-05-15T11:48:34.222Z,22.54
2016-05-15T11:49:34.054Z,22.84
2016-05-15T11:50:34.196Z,22.91
2016-05-15T11:51:34.200Z,23
2016-05-15T11:52:34.030Z,23.18
2016-05-15T11:53:34.174Z,23.71
2016-05-15T11:54:33.957Z,22.98
2016-05-15T11:55:34.163Z,23.76
2016-05-15T11:56:34.353Z,23.4
2016-05-15T11:57:34.138Z,23.17
2016-05-15T11:58:34.141Z,23.87
2016-05-15T11:59:34.112Z,23.96
2016-05-15T12:00:34.114Z,24.03
2016-05-15T12:01:34.101Z,23.69
2016-05-15T12:02:34.104Z,23.84
2016-05-15T12:03:33.935Z,23.86
2016-05-15T12:04:34.485Z,23.81
2016-05-15T12:05:34.081Z,23.71
2016-05-15T12:06:34.068Z,23.76
2016-05-15T12:07:33.898Z,23.99
2016-05-15T12:08:34.042Z,24.18
2016-05-15T12:09:34.045Z,23.96
2016-05-15T12:10:34.048Z,24.47
2016-05-15T12:11:34.019Z,24.5
2016-05-15T12:12:34.022Z,24.51
2016-05-15T12:13:33.994Z,24.7
2016-05-15T12:14:33.700Z,24.61
2016-05-15T12:15:33.999Z,24.35
2016-05-15T12:16:33.986Z,24.58
2016-05-15T12:17:33.988Z,24.55
2016-05-15T12:18:33.975Z,24.24
2016-05-15T12:19:34.009Z,24.28
2016-05-15T12:20:33.965Z,24.33
2016-05-15T12:21:33.984Z,24.54
2016-05-15T12:22:33.939Z,24.06
2016-05-15T12:23:33.942Z,23.93
2016-05-15T12:24:33.929Z,23.61
2016-05-15T12:25:33.916Z,23.71
2016-05-15T12:26:33.918Z,23.95
2016-05-15T12:27:33.907Z,23.62
2016-05-15T12:28:33.893Z,23.4
2016-05-15T12:29:33.880Z,23.18
2016-05-15T12:30:33.726Z,23.61
2016-05-15T12:31:33.870Z,24.42
2016-05-15T12:32:33.857Z,24.76
2016-05-15T12:33:33.844Z,24.96
2016-05-15T12:34:33.706Z,25.06
2016-05-15T12:35:33.834Z,25.69
2016-05-15T12:36:33.836Z,25.93
2016-05-15T12:37:33.839Z,26.1
2016-05-15T12:38:33.811Z,26.26
2016-05-15T12:39:33.642Z,26.37
2016-05-15T12:40:33.817Z,26.62
2016-05-15T12:41:33.803Z,27.3
2016-05-15T12:42:33.822Z,27.68
2016-05-15T12:43:33.792Z,27.95
2016-05-15T12:44:33.795Z,27.74
2016-05-15T12:45:33.782Z,27.98
2016-05-15T12:46:33.645Z,28.51
2016-05-15T12:47:33.772Z,27.92
2016-05-15T12:48:33.775Z,27.9
2016-05-15T12:49:33.622Z,27.73
2016-05-15T12:50:33.764Z,27.89
2016-05-15T12:51:33.767Z,28
2016-05-15T12:52:33.754Z,28.2
2016-05-15T12:53:33.601Z,27.9
2016-05-15T12:54:33.744Z,26.33
2016-05-15T12:55:33.763Z,25.88
2016-05-15T12:56:33.765Z,26.77
2016-05-15T12:57:33.752Z,27.73